Time;durP1;ratioP1;P1;durP2;ratioP2;P2;SDS_P1;SDS_P2;PMS_P1;PMS_P2;Temp;Humidity;BMP_temperature;BMP_pressure;BME280_temperature;BME280_humidity;BME280_pressure;Samples;Min_cycle;Max_cycle;Signal;HPM_P1;HPM_P2
2022/04/21 00:00:08;;;;;;;11.98;6.60;;;13.00;81.40;;;;;;5132721;27;20027;-66
2022/04/21 00:02:34;;;;;;;13.30;6.35;;;13.00;81.50;;;;;;5132943;27;20418;-66
2022/04/21 00:04:59;;;;;;;14.80;6.82;;;13.00;81.60;;;;;;5129943;27;20030;-66
2022/04/21 00:07:25;;;;;;;14.00;6.78;;;12.90;81.60;;;;;;5117819;27;20019;-66
2022/04/21 00:09:51;;;;;;;11.25;6.68;;;12.90;81.70;;;;;;5126302;27;20539;-66
2022/04/21 00:12:17;;;;;;;13.75;6.68;;;12.90;81.80;;;;;;5132866;27;20023;-66
2022/04/21 00:14:43;;;;;;;12.80;7.03;;;12.90;81.90;;;;;;5124803;27;20038;-66
2022/04/21 00:17:12;;;;;;;16.70;7.03;;;12.80;81.90;;;;;;5132782;27;20084;-66
2022/04/21 00:19:38;;;;;;;13.05;6.85;;;12.80;82.10;;;;;;5132662;27;20031;-66
2022/04/21 00:24:49;;;;;;;12.43;6.90;;;12.80;82.20;;;;;;5120161;27;20485;-66
2022/04/21 00:27:16;;;;;;;15.15;7.28;;;12.70;82.30;;;;;;5119139;27;20027;-66
2022/04/21 00:29:42;;;;;;;15.43;7.15;;;12.70;82.30;;;;;;5114258;27;20126;-66
2022/04/21 00:32:07;;;;;;;11.60;6.50;;;12.70;82.50;;;;;;5132520;27;20125;-66
2022/04/21 00:34:33;;;;;;;15.50;6.63;;;12.60;82.50;;;;;;5131675;27;20896;-66
2022/04/21 00:36:59;;;;;;;11.20;6.53;;;12.70;82.70;;;;;;5132427;27;20027;-66
2022/04/21 00:39:26;;;;;;;11.25;6.75;;;12.60;82.70;;;;;;5132457;27;20501;-66
2022/04/21 00:41:58;;;;;;;16.58;7.18;;;12.60;82.80;;;;;;5131832;27;20040;-66
2022/04/21 00:44:25;;;;;;;12.25;6.50;;;12.60;82.90;;;;;;5132282;27;20031;-66
2022/04/21 00:46:52;;;;;;;15.73;7.65;;;12.60;82.90;;;;;;5131988;27;20039;-66
2022/04/21 00:49:19;;;;;;;16.40;6.78;;;12.50;83.00;;;;;;5120936;27;20107;-66
2022/04/21 00:51:45;;;;;;;15.93;6.68;;;12.60;83.10;;;;;;5130591;27;20030;-66
2022/04/21 00:54:11;;;;;;;12.60;6.63;;;12.50;83.20;;;;;;5132600;27;20031;-66
2022/04/21 00:56:39;;;;;;;15.88;6.93;;;12.50;83.30;;;;;;5131592;27;20015;-66
2022/04/21 00:59:06;;;;;;;12.25;6.70;;;12.50;83.40;;;;;;5132222;27;20110;-66
2022/04/21 01:04:18;;;;;;;14.23;6.82;;;12.40;83.50;;;;;;5127156;27;20042;-66
2022/04/21 01:06:45;;;;;;;13.43;6.53;;;12.40;83.50;;;;;;5131500;27;20088;-66
2022/04/21 01:09:11;;;;;;;12.30;6.72;;;12.40;83.50;;;;;;5131884;27;20071;-66
2022/04/21 01:11:38;;;;;;;13.70;6.75;;;12.40;84.20;;;;;;5131479;27;20055;-66
2022/04/21 01:14:04;;;;;;;16.70;7.50;;;12.40;83.70;;;;;;5127782;28;20039;-66
2022/04/21 01:16:30;;;;;;;11.45;6.82;;;12.30;83.80;;;;;;5131445;28;20378;-66
2022/04/21 01:18:56;;;;;;;11.85;7.22;;;12.30;83.90;;;;;;5131951;28;20030;-66
2022/04/21 01:21:22;;;;;;;13.32;7.13;;;12.40;84.00;;;;;;5131993;28;20605;-66
2022/04/21 01:23:48;;;;;;;18.92;8.45;;;12.30;84.00;;;;;;5131380;28;20030;-66
2022/04/21 01:26:16;;;;;;;17.52;7.68;;;12.30;84.00;;;;;;5132270;28;20370;-66
2022/04/21 01:28:43;;;;;;;14.25;7.05;;;12.30;84.00;;;;;;5125991;28;20086;-66
2022/04/21 01:31:08;;;;;;;13.95;7.25;;;12.30;84.00;;;;;;5123703;28;20042;-66
2022/04/21 01:33:34;;;;;;;17.27;8.07;;;12.30;84.00;;;;;;5131740;28;20393;-66
2022/04/21 01:36:02;;;;;;;18.85;8.60;;;12.30;84.00;;;;;;5131672;28;20102;-66
2022/04/21 01:41:12;;;;;;;18.77;7.97;;;12.30;83.90;;;;;;5131810;28;20058;-66
2022/04/21 01:43:43;;;;;;;14.43;7.45;;;12.20;83.90;;;;;;5131532;28;20050;-66
2022/04/21 01:46:09;;;;;;;21.73;8.18;;;12.20;84.00;;;;;;5131223;28;20119;-66
2022/04/21 01:48:36;;;;;;;17.75;8.65;;;12.20;84.00;;;;;;5131573;28;20058;-66
2022/04/21 01:51:02;;;;;;;14.30;7.53;;;12.20;84.10;;;;;;5131831;28;20471;-66
2022/04/21 01:53:28;;;;;;;14.75;7.65;;;12.20;84.30;;;;;;5125722;28;20172;-66
2022/04/21 01:55:54;;;;;;;14.48;8.05;;;12.20;84.40;;;;;;5124330;28;20050;-66
2022/04/21 01:58:19;;;;;;;13.13;7.40;;;12.20;84.40;;;;;;5131721;28;20478;-66
2022/04/21 02:00:46;;;;;;;19.45;8.60;;;12.20;84.60;;;;;;5112765;28;20035;-66
2022/04/21 02:03:12;;;;;;;13.95;7.72;;;12.10;84.60;;;;;;5132043;28;20023;-66
2022/04/21 02:05:37;;;;;;;12.27;7.32;;;12.20;84.80;;;;;;5130811;28;20019;-66
2022/04/21 02:08:04;;;;;;;14.18;7.72;;;12.10;84.80;;;;;;5131667;28;20319;-66
2022/04/21 02:10:30;;;;;;;13.02;6.43;;;12.20;84.90;;;;;;5131450;28;20039;-66
2022/04/21 02:12:57;;;;;;;15.75;7.50;;;12.10;84.80;;;;;;5130789;28;20023;-66
2022/04/21 02:15:23;;;;;;;12.73;6.57;;;12.10;84.80;;;;;;5127400;28;20038;-66
2022/04/21 02:17:50;;;;;;;10.32;5.95;;;12.10;84.60;;;;;;5131785;27;20027;-66
2022/04/21 02:20:19;;;;;;;11.35;5.72;;;12.10;84.40;;;;;;5134400;27;20426;-66
2022/04/21 02:22:46;;;;;;;12.00;5.85;;;12.10;84.10;;;;;;5134301;27;20031;-66
2022/04/21 02:25:14;;;;;;;12.98;5.97;;;12.00;83.90;;;;;;5134904;27;20079;-66
2022/04/21 02:27:42;;;;;;;10.25;5.45;;;12.00;83.70;;;;;;5134408;27;20550;-66
2022/04/21 02:30:09;;;;;;;10.07;5.32;;;12.00;83.50;;;;;;5134907;27;20122;-66
2022/04/21 02:32:36;;;;;;;12.15;5.60;;;12.00;83.40;;;;;;5135043;27;20037;-66
2022/04/21 02:35:06;;;;;;;10.57;5.88;;;12.00;83.30;;;;;;5134134;27;20023;-66
2022/04/21 02:37:44;;;;;;;10.18;5.20;;;12.00;83.20;;;;;;5123713;27;20024;-66
2022/04/21 02:40:11;;;;;;;10.90;6.03;;;12.00;83.20;;;;;;5129823;27;20039;-66
2022/04/21 02:42:38;;;;;;;11.57;4.97;;;11.90;83.10;;;;;;5134126;27;20053;-66
2022/04/21 02:45:14;;;;;;;10.27;5.40;;;12.00;83.20;;;;;;5134581;27;20054;-66
2022/04/21 02:47:42;;;;;;;11.75;5.75;;;11.90;83.10;;;;;;5134606;27;20062;-66
2022/04/21 02:50:08;;;;;;;8.07;4.82;;;11.90;83.10;;;;;;5133676;27;20087;-66
2022/04/21 02:52:38;;;;;;;11.52;5.50;;;11.90;83.10;;;;;;5130780;27;20662;-66
2022/04/21 02:57:49;;;;;;;14.00;5.25;;;11.80;83.10;;;;;;5122854;27;20084;-66
2022/04/21 03:00:15;;;;;;;11.23;5.78;;;11.80;83.10;;;;;;5121330;27;20031;-66
2022/04/21 03:02:41;;;;;;;11.27;5.25;;;11.80;83.20;;;;;;5133339;27;20102;-66
2022/04/21 03:05:07;;;;;;;8.73;5.07;;;11.70;83.30;;;;;;5120724;27;20032;-66
2022/04/21 03:07:33;;;;;;;12.90;5.50;;;11.70;83.30;;;;;;5127286;27;20023;-66
2022/04/21 03:09:58;;;;;;;10.48;5.65;;;11.70;83.40;;;;;;5132034;27;20489;-66
2022/04/21 03:12:26;;;;;;;8.52;4.88;;;11.70;83.40;;;;;;5133884;27;20035;-66
2022/04/21 03:14:53;;;;;;;9.52;5.53;;;11.70;83.50;;;;;;5125836;27;20031;-66
2022/04/21 03:17:19;;;;;;;13.38;4.88;;;11.70;83.50;;;;;;5131178;27;20062;-66
2022/04/21 03:19:45;;;;;;;10.73;5.35;;;11.60;83.60;;;;;;5134180;27;20050;-66
2022/04/21 03:25:03;;;;;;;8.55;4.93;;;11.60;83.70;;;;;;5133080;27;20099;-66
2022/04/21 03:27:29;;;;;;;12.53;6.30;;;11.50;83.70;;;;;;5133613;27;20504;-66
2022/04/21 03:30:02;;;;;;;12.45;5.60;;;11.50;83.70;;;;;;5132996;27;20031;-66
2022/04/21 03:32:29;;;;;;;;;;;11.40;83.60;;;;;;5133145;27;20031;-66
2022/04/21 03:34:55;;;;;;;13.10;6.28;;;11.40;83.60;;;;;;5133754;27;19907;-66
2022/04/21 03:37:21;;;;;;;11.20;5.82;;;11.40;83.50;;;;;;5132827;27;20050;-66
2022/04/21 03:39:52;;;;;;;12.10;6.22;;;11.40;83.60;;;;;;5133718;27;20035;-66
2022/04/21 03:42:23;;;;;;;12.57;6.30;;;11.40;83.70;;;;;;5133302;27;20015;-66
2022/04/21 03:44:49;;;;;;;9.27;5.30;;;11.30;83.80;;;;;;5133206;27;20027;-66
2022/04/21 03:47:15;;;;;;;11.85;5.45;;;11.30;83.80;;;;;;5133166;27;20490;-67
2022/04/21 03:49:41;;;;;;;11.02;5.43;;;11.30;83.90;;;;;;5133390;27;20035;-66
2022/04/21 03:52:08;;;;;;;11.02;5.53;;;11.30;83.90;;;;;;5128253;27;20043;-66
2022/04/21 03:54:33;;;;;;;10.95;6.25;;;11.30;83.90;;;;;;5125167;27;20039;-66
2022/04/21 03:56:59;;;;;;;11.02;6.65;;;11.30;83.90;;;;;;5133007;27;20026;-66
2022/04/21 03:59:25;;;;;;;9.52;5.45;;;11.30;83.90;;;;;;5132708;27;20466;-66
2022/04/21 04:01:54;;;;;;;16.40;6.65;;;11.30;83.90;;;;;;5132731;27;20023;-66
2022/04/21 04:04:22;;;;;;;13.55;6.07;;;11.20;83.90;;;;;;5133180;27;20461;-66
2022/04/21 04:12:23;;;;;;;11.88;5.93;;;11.20;84.00;;;;;;5132511;27;20047;-66
2022/04/21 04:14:49;;;;;;;10.88;5.80;;;11.10;84.00;;;;;;5121681;27;20469;-66
2022/04/21 04:17:14;;;;;;;11.38;6.43;;;11.10;84.10;;;;;;5132876;27;20121;-66
2022/04/21 04:19:40;;;;;;;12.18;6.57;;;11.10;84.20;;;;;;5132018;27;20027;-66
2022/04/21 04:22:06;;;;;;;21.92;6.25;;;11.10;84.40;;;;;;5133069;27;20463;-66
2022/04/21 04:24:32;;;;;;;12.50;6.40;;;11.10;84.50;;;;;;5132856;27;20018;-66
2022/04/21 04:26:57;;;;;;;13.25;6.22;;;11.00;84.60;;;;;;5132346;27;20023;-66
2022/04/21 04:29:24;;;;;;;12.35;6.18;;;11.00;84.70;;;;;;5132565;27;20043;-66
2022/04/21 04:31:54;;;;;;;20.15;6.22;;;11.00;84.80;;;;;;5132761;27;20027;-66
2022/04/21 04:34:21;;;;;;;11.88;5.35;;;11.00;84.90;;;;;;5131886;27;20095;-66
2022/04/21 04:36:47;;;;;;;10.43;6.30;;;10.90;84.90;;;;;;5132779;27;20031;-65
2022/04/21 04:39:14;;;;;;;11.32;6.57;;;11.00;85.00;;;;;;5132544;27;20027;-66
2022/04/21 04:44:24;;;;;;;11.20;6.78;;;10.90;85.00;;;;;;5121585;27;20081;-66
2022/04/21 04:46:50;;;;;;;14.63;6.10;;;10.90;85.00;;;;;;5132088;27;20489;-66
2022/04/21 04:49:16;;;;;;;14.30;6.07;;;10.90;85.00;;;;;;5131780;27;20232;-66
2022/04/21 04:51:42;;;;;;;10.02;5.97;;;10.80;85.00;;;;;;5131288;27;20034;-66
2022/04/21 04:54:12;;;;;;;15.73;6.07;;;10.90;85.10;;;;;;5132298;27;20126;-66
2022/04/21 04:56:39;;;;;;;10.73;5.72;;;10.80;85.20;;;;;;5131447;27;20102;-66
2022/04/21 04:59:05;;;;;;;10.48;5.85;;;10.80;85.30;;;;;;5132146;27;20034;-66
2022/04/21 05:01:41;;;;;;;11.80;5.88;;;10.80;85.30;;;;;;5131072;27;20398;-66
2022/04/21 05:04:14;;;;;;;11.38;5.95;;;10.90;85.50;;;;;;5132427;27;20042;-66
2022/04/21 05:06:43;;;;;;;11.02;5.88;;;10.80;85.60;;;;;;5124862;27;20027;-66
2022/04/21 05:09:11;;;;;;;10.25;5.72;;;10.80;85.70;;;;;;5131402;27;20043;-66
2022/04/21 05:11:38;;;;;;;11.25;5.57;;;10.80;85.90;;;;;;5131180;27;20359;-67
2022/04/21 05:14:07;;;;;;;11.82;6.35;;;10.80;86.10;;;;;;5123892;27;20101;-67
2022/04/21 05:16:36;;;;;;;9.77;6.05;;;10.80;86.20;;;;;;5130393;27;20024;-67
2022/04/21 05:19:09;;;;;;;9.75;5.13;;;10.80;86.40;;;;;;5131153;27;20027;-67
2022/04/21 05:21:36;;;;;;;10.80;6.20;;;10.80;86.50;;;;;;5131095;28;20385;-65
2022/04/21 05:24:03;;;;;;;11.82;5.63;;;10.80;86.70;;;;;;5130413;28;20059;-66
2022/04/21 05:26:30;;;;;;;9.93;6.30;;;10.80;86.90;;;;;;5131894;28;20083;-65
2022/04/21 05:28:58;;;;;;;11.60;6.40;;;10.80;87.10;;;;;;5131084;28;20039;-65
2022/04/21 05:31:26;;;;;;;10.52;5.85;;;10.80;87.40;;;;;;5126286;28;20031;-65
2022/04/21 05:33:55;;;;;;;11.98;5.45;;;10.80;87.40;;;;;;5127112;28;20025;-64
2022/04/21 05:36:21;;;;;;;18.63;5.80;;;10.80;87.60;;;;;;5127904;28;20019;-64
2022/04/21 05:38:49;;;;;;;14.15;5.60;;;10.80;87.50;;;;;;5127650;28;20079;-65
2022/04/21 05:41:16;;;;;;;9.93;5.50;;;10.90;87.70;;;;;;5128152;28;20087;-64
2022/04/21 05:43:44;;;;;;;10.02;5.10;;;10.90;87.90;;;;;;5127280;28;20722;-64
2022/04/21 05:46:12;;;;;;;14.48;5.60;;;10.90;87.90;;;;;;5128264;28;20103;-64
2022/04/21 05:48:39;;;;;;;14.68;5.50;;;10.90;88.00;;;;;;5129245;28;20092;-63
2022/04/21 05:51:05;;;;;;;12.27;5.07;;;10.90;88.20;;;;;;5129705;28;20507;-67
2022/04/21 05:53:36;;;;;;;12.27;5.20;;;10.90;88.40;;;;;;5130692;27;20118;-64
2022/04/21 05:56:04;;;;;;;17.02;5.50;;;11.00;88.60;;;;;;5134384;27;20050;-64
2022/04/21 05:58:31;;;;;;;8.63;4.95;;;11.00;88.50;;;;;;5132761;27;20031;-66
2022/04/21 06:01:00;;;;;;;6.88;4.35;;;11.00;88.40;;;;;;5116466;27;20137;-66
2022/04/21 06:03:29;;;;;;;10.00;5.20;;;11.00;88.40;;;;;;5130581;27;20050;-66
2022/04/21 06:05:54;;;;;;;8.82;4.65;;;11.00;88.40;;;;;;5132498;27;20055;-65
2022/04/21 06:08:20;;;;;;;9.15;4.75;;;11.00;88.50;;;;;;5132652;27;20051;-68
2022/04/21 06:10:49;;;;;;;8.70;4.97;;;11.00;88.40;;;;;;5132024;27;20122;-65
2022/04/21 06:13:15;;;;;;;9.18;4.95;;;11.00;88.20;;;;;;5130135;27;20520;-66
2022/04/21 06:15:43;;;;;;;7.80;4.88;;;11.00;88.20;;;;;;5131760;27;20047;-67
2022/04/21 06:18:09;;;;;;;9.07;3.92;;;11.00;88.20;;;;;;5131271;27;20429;-67
2022/04/21 06:20:38;;;;;;;6.82;4.07;;;11.00;88.80;;;;;;5131857;27;20035;-67
2022/04/21 06:23:03;;;;;;;7.18;4.45;;;11.00;88.00;;;;;;5130716;27;20031;-65
2022/04/21 06:25:29;;;;;;;7.90;4.07;;;11.00;88.10;;;;;;5133925;27;20027;-67
2022/04/21 06:27:55;;;;;;;6.75;3.92;;;11.00;88.00;;;;;;5131670;27;20019;-67
2022/04/21 06:30:23;;;;;;;6.90;3.72;;;11.00;87.90;;;;;;5132656;27;20043;-66
2022/04/21 06:32:49;;;;;;;7.40;4.30;;;11.10;87.70;;;;;;5132613;27;20394;-65
2022/04/21 06:35:15;;;;;;;7.50;4.38;;;11.10;87.50;;;;;;5134589;27;20490;-66
2022/04/21 06:37:42;;;;;;;9.07;4.60;;;11.10;87.50;;;;;;5134928;27;20058;-66
2022/04/21 06:40:08;;;;;;;11.32;4.68;;;11.20;87.60;;;;;;5133482;27;20059;-66
2022/04/21 06:42:37;;;;;;;7.85;3.95;;;11.20;87.50;;;;;;5132895;27;20031;-66
2022/04/21 06:48:04;;;;;;;7.45;3.67;;;11.20;87.30;;;;;;5131533;27;20047;-66
2022/04/21 06:50:34;;;;;;;7.00;3.45;;;11.30;87.10;;;;;;5134097;27;20070;-67
2022/04/21 06:53:09;;;;;;;10.00;3.90;;;11.30;87.00;;;;;;5131648;27;20027;-65
2022/04/21 06:55:35;;;;;;;5.78;3.80;;;11.40;87.10;;;;;;5131831;27;20026;-65
2022/04/21 06:58:02;;;;;;;9.65;5.07;;;11.40;86.90;;;;;;5131821;27;20045;-65
2022/04/21 07:00:28;;;;;;;7.90;3.70;;;11.40;86.60;;;;;;5132300;27;20023;-65
2022/04/21 07:02:56;;;;;;;5.32;3.40;;;11.40;86.60;;;;;;5131714;27;20083;-65
2022/04/21 07:05:27;;;;;;;8.45;3.97;;;11.50;86.50;;;;;;5131156;27;20386;-65
2022/04/21 07:07:53;;;;;;;14.68;4.10;;;11.50;86.40;;;;;;5131284;27;20098;-65
2022/04/21 07:10:20;;;;;;;8.52;3.80;;;11.60;86.20;;;;;;5131035;27;20459;-66
2022/04/21 07:12:46;;;;;;;5.43;2.97;;;11.70;85.90;;;;;;5131880;27;20080;-65
2022/04/21 07:15:12;;;;;;;9.73;3.33;;;11.60;85.30;;;;;;5131001;27;20482;-65
2022/04/21 07:17:40;;;;;;;5.90;2.28;;;11.70;85.00;;;;;;5131579;27;20493;-65
2022/04/21 07:20:08;;;;;;;4.47;2.72;;;11.80;85.70;;;;;;5131780;27;20031;-65
2022/04/21 07:22:33;;;;;;;5.68;3.08;;;11.80;85.40;;;;;;5129871;27;20023;-70
2022/04/21 07:25:02;;;;;;;3.95;2.75;;;11.80;84.60;;;;;;5131744;27;20039;-67
2022/04/21 07:27:27;;;;;;;7.15;2.85;;;11.90;84.50;;;;;;5127192;27;20087;-67
2022/04/21 07:29:53;;;;;;;6.72;3.35;;;11.90;84.00;;;;;;5128331;27;20549;-67
2022/04/21 07:32:19;;;;;;;5.90;2.95;;;12.00;83.60;;;;;;5131515;27;20072;-67
2022/04/21 07:34:45;;;;;;;4.68;2.60;;;12.00;83.50;;;;;;5130850;27;20591;-67
2022/04/21 07:37:10;;;;;;;6.65;3.28;;;12.10;83.30;;;;;;5131422;27;20027;-66
2022/04/21 07:39:38;;;;;;;5.57;2.60;;;12.10;83.80;;;;;;5131814;27;20601;-65
2022/04/21 07:42:08;;;;;;;6.78;2.90;;;12.20;83.40;;;;;;5130987;27;20019;-66
2022/04/21 07:44:36;;;;;;;7.63;2.75;;;12.20;83.40;;;;;;5132211;27;20042;-66
2022/04/21 07:47:06;;;;;;;3.92;1.85;;;12.30;83.50;;;;;;5132666;27;20039;-66
2022/04/21 07:49:47;;;;;;;5.35;3.05;;;12.30;83.60;;;;;;5133310;27;20045;-66
2022/04/21 07:55:17;;;;;;;4.75;2.95;;;12.40;83.30;;;;;;5121897;27;20440;-66
2022/04/21 07:57:44;;;;;;;6.53;3.67;;;12.50;83.40;;;;;;5132733;27;20038;-65
2022/04/21 08:00:12;;;;;;;7.55;2.90;;;12.60;83.40;;;;;;5132529;27;20122;-66
2022/04/21 08:02:40;;;;;;;5.75;3.25;;;12.70;83.60;;;;;;5132088;27;20030;-66
2022/04/21 08:05:06;;;;;;;4.07;2.75;;;12.70;83.30;;;;;;5131259;27;20031;-66
2022/04/21 08:07:32;;;;;;;6.35;2.78;;;12.70;83.40;;;;;;5120260;27;20050;-66
2022/04/21 08:09:58;;;;;;;3.83;2.28;;;12.70;83.00;;;;;;5132130;27;20147;-65
2022/04/21 08:12:24;;;;;;;4.97;3.10;;;12.80;83.70;;;;;;5131576;27;20034;-65
2022/04/21 08:14:51;;;;;;;3.20;2.13;;;12.90;83.30;;;;;;5131157;27;20122;-66
2022/04/21 08:17:16;;;;;;;4.40;2.35;;;13.00;83.20;;;;;;5119738;27;20027;-65
2022/04/21 08:19:42;;;;;;;3.85;2.45;;;13.00;83.40;;;;;;5132404;27;20100;-65
2022/04/21 08:22:08;;;;;;;9.63;1.98;;;13.10;82.20;;;;;;5119512;27;20035;-66
2022/04/21 08:32:46;;;;;;;6.65;2.38;;;13.20;82.30;;;;;;5131983;27;20027;-65
2022/04/21 08:35:15;;;;;;;7.72;2.45;;;13.30;82.80;;;;;;5132655;27;20019;-65
2022/04/21 08:37:44;;;;;;;4.05;2.45;;;13.30;82.90;;;;;;5132495;27;20083;-65
2022/04/21 08:40:10;;;;;;;5.03;2.63;;;13.30;82.10;;;;;;5131528;27;20368;-65
2022/04/21 08:42:41;;;;;;;7.18;2.78;;;13.30;82.20;;;;;;5132817;27;20031;-65
2022/04/21 08:45:08;;;;;;;6.18;3.00;;;13.40;81.90;;;;;;5132386;27;20043;-65
2022/04/21 08:47:35;;;;;;;5.20;2.55;;;13.40;82.20;;;;;;5131587;27;20129;-65
2022/04/21 08:50:06;;;;;;;3.80;1.92;;;13.40;82.10;;;;;;5132280;27;20458;-65
2022/04/21 08:52:34;;;;;;;1.92;1.05;;;13.50;82.00;;;;;;5132044;27;20470;-65
2022/04/21 08:55:02;;;;;;;3.75;2.00;;;13.50;82.10;;;;;;5119703;27;20114;-65
2022/04/21 08:57:30;;;;;;;7.63;2.90;;;13.60;82.10;;;;;;5132257;27;20411;-65
2022/04/21 08:59:57;;;;;;;4.25;2.50;;;13.60;82.20;;;;;;5132375;27;20114;-65
2022/04/21 09:02:37;;;;;;;7.80;2.90;;;13.70;82.40;;;;;;5131395;27;20024;-65
2022/04/21 09:05:04;;;;;;;4.40;2.72;;;13.80;81.90;;;;;;5132118;27;20023;-65
2022/04/21 09:07:29;;;;;;;3.70;2.38;;;13.90;82.30;;;;;;5120973;27;20038;-65
2022/04/21 09:10:05;;;;;;;3.63;2.17;;;13.90;82.40;;;;;;5130526;27;20039;-65
2022/04/21 09:12:32;;;;;;;5.32;3.10;;;13.90;82.70;;;;;;5131821;27;20394;-65
2022/04/21 09:14:57;;;;;;;4.50;2.33;;;13.90;82.40;;;;;;5129666;27;20035;-65
2022/04/21 09:17:24;;;;;;;3.92;2.67;;;14.00;82.20;;;;;;5132138;27;20424;-65
2022/04/21 09:20:00;;;;;;;7.68;2.67;;;14.00;82.40;;;;;;5131734;27;20035;-66
2022/04/21 09:22:31;;;;;;;2.75;2.15;;;14.00;82.00;;;;;;5131276;27;20478;-66
2022/04/21 09:24:59;;;;;;;8.70;2.30;;;14.00;82.60;;;;;;5131320;28;20054;-66
2022/04/21 09:27:36;;;;;;;4.25;2.38;;;14.00;83.50;;;;;;5126632;27;20039;-66
2022/04/21 09:30:03;;;;;;;7.65;3.05;;;14.00;83.70;;;;;;5127608;27;20125;-66
2022/04/21 09:32:29;;;;;;;6.20;2.47;;;14.10;82.50;;;;;;5135572;27;20042;-66
2022/04/21 09:34:56;;;;;;;5.70;2.67;;;14.20;83.10;;;;;;5135924;27;20381;-66
2022/04/21 09:37:22;;;;;;;7.65;2.80;;;14.20;83.50;;;;;;5135285;27;20057;-67
2022/04/21 09:39:51;;;;;;;4.55;2.50;;;14.30;82.90;;;;;;5135686;27;20035;-67
2022/04/21 09:42:27;;;;;;;4.50;2.88;;;14.30;83.10;;;;;;5136138;27;20114;-67
2022/04/21 09:47:51;;;;;;;7.45;3.10;;;14.40;84.20;;;;;;5131366;27;20031;-67
2022/04/21 09:50:17;;;;;;;7.43;3.10;;;14.40;83.40;;;;;;5126550;27;20036;-67
2022/04/21 09:52:53;;;;;;;4.10;2.50;;;14.40;83.70;;;;;;5131593;27;20474;-67
2022/04/21 09:55:27;;;;;;;4.82;2.40;;;14.50;84.00;;;;;;5124161;27;20070;-67
2022/04/21 09:58:04;;;;;;;;;;;14.50;84.40;;;;;;5134482;27;20050;-67
2022/04/21 10:00:31;;;;;;;6.45;2.65;;;14.50;85.50;;;;;;5134880;27;20304;-67
2022/04/21 10:02:57;;;;;;;5.80;2.40;;;14.50;84.20;;;;;;5135475;27;20034;-68
2022/04/21 10:05:24;;;;;;;6.07;3.17;;;14.60;84.30;;;;;;5134644;27;20027;-67
2022/04/21 10:07:50;;;;;;;6.70;2.30;;;14.60;84.00;;;;;;5124002;27;20488;-68
2022/04/21 10:10:17;;;;;;;3.90;2.38;;;14.70;84.10;;;;;;5122525;27;20047;-66
2022/04/21 10:12:43;;;;;;;4.15;2.22;;;14.70;82.70;;;;;;5134249;27;20066;-67
2022/04/21 10:15:10;;;;;;;5.35;2.22;;;14.70;82.30;;;;;;5132180;27;20466;-67
2022/04/21 10:17:36;;;;;;;4.22;2.45;;;14.80;83.50;;;;;;5124892;27;20041;-67
2022/04/21 10:20:04;;;;;;;7.72;2.60;;;14.70;83.60;;;;;;5134081;27;20050;-67
2022/04/21 10:22:33;;;;;;;4.68;2.22;;;14.70;84.00;;;;;;5134895;27;20074;-67
2022/04/21 10:25:01;;;;;;;3.08;2.03;;;14.80;82.20;;;;;;5134139;27;20397;-67
2022/04/21 10:27:35;;;;;;;4.32;2.00;;;14.80;83.20;;;;;;5135280;27;20035;-67
2022/04/21 10:30:01;;;;;;;3.80;2.08;;;14.80;83.10;;;;;;5134545;27;20039;-70
2022/04/21 10:32:50;;;;;;;3.35;2.25;;;14.90;83.20;;;;;;5132662;27;20034;-67
2022/04/21 10:35:27;;;;;;;4.13;2.05;;;15.00;83.30;;;;;;5134151;27;20084;-67
2022/04/21 10:38:14;;;;;;;2.97;1.77;;;15.00;83.20;;;;;;5134837;27;20027;-67
2022/04/21 10:41:06;;;;;;;3.25;2.15;;;15.00;83.30;;;;;;5123029;27;20160;-67
2022/04/21 10:43:50;;;;;;;3.83;2.47;;;15.10;82.90;;;;;;5134810;27;20038;-67
2022/04/21 10:46:26;;;;;;;3.13;2.08;;;15.20;83.20;;;;;;5133988;27;20137;-67
2022/04/21 10:48:52;;;;;;;5.50;2.28;;;15.20;83.10;;;;;;5134719;27;20088;-67
2022/04/21 10:57:29;;;;;;;2.65;1.88;;;15.30;82.60;;;;;;5132096;27;20382;-67
2022/04/21 11:00:01;;;;;;;4.13;2.45;;;15.40;82.80;;;;;;5133368;27;20109;-67
2022/04/21 11:02:43;;;;;;;4.35;2.50;;;15.40;82.00;;;;;;5130087;27;20027;-67
2022/04/21 11:05:33;;;;;;;3.17;2.45;;;15.50;82.90;;;;;;5131853;27;20031;-63
2022/04/21 11:08:04;;;;;;;5.50;2.15;;;15.60;82.30;;;;;;5120980;27;20482;-66
2022/04/21 11:10:39;;;;;;;2.78;2.13;;;15.60;82.90;;;;;;5128898;27;20126;-66
2022/04/21 11:13:09;;;;;;;4.32;2.10;;;15.60;82.60;;;;;;5133881;27;20027;-66
2022/04/21 11:15:49;;;;;;;5.03;2.17;;;15.60;83.30;;;;;;5128554;27;20034;-65
2022/04/21 11:18:18;;;;;;;4.85;2.08;;;15.60;82.20;;;;;;5134366;27;20122;-67
2022/04/21 11:20:49;;;;;;;4.30;2.10;;;15.60;83.40;;;;;;5133610;27;20458;-67
2022/04/21 11:23:30;;;;;;;4.25;2.47;;;15.60;82.60;;;;;;5132177;27;20061;-68
2022/04/21 11:26:04;;;;;;;3.25;1.70;;;15.60;82.60;;;;;;5127787;27;20420;-68
2022/04/21 11:28:30;;;;;;;5.30;1.90;;;15.70;83.60;;;;;;5130669;27;20023;-68
2022/04/21 11:30:57;;;;;;;3.08;2.15;;;15.60;83.30;;;;;;5132732;27;20030;-66
2022/04/21 11:33:23;;;;;;;4.60;2.42;;;15.60;82.60;;;;;;5128136;27;20047;-68
2022/04/21 11:35:49;;;;;;;8.60;2.83;;;15.60;81.50;;;;;;5132975;27;20023;-66
2022/04/21 11:38:14;;;;;;;4.75;2.25;;;15.70;82.60;;;;;;5132788;27;20470;-66
2022/04/21 11:40:40;;;;;;;3.38;2.30;;;15.80;83.10;;;;;;5129558;27;20459;-67
2022/04/21 11:43:15;;;;;;;4.35;2.60;;;15.80;83.30;;;;;;5126552;27;20088;-71
2022/04/21 11:45:44;;;;;;;4.97;2.67;;;15.80;83.20;;;;;;5132200;27;20103;-66
2022/04/21 11:48:13;;;;;;;4.35;2.60;;;15.90;83.40;;;;;;5132198;27;20493;-67
2022/04/21 11:50:46;;;;;;;8.10;2.30;;;15.90;83.40;;;;;;5131081;27;20615;-67
2022/04/21 11:53:15;;;;;;;3.97;2.10;;;15.90;82.80;;;;;;5132171;27;20592;-66
2022/04/21 11:55:41;;;;;;;6.05;2.42;;;15.90;82.80;;;;;;5132179;27;20071;-68
2022/04/21 11:58:07;;;;;;;4.43;2.85;;;15.90;82.60;;;;;;5131332;27;20050;-67
2022/04/21 12:08:47;;;;;;;7.03;3.15;;;16.10;82.40;;;;;;5133361;27;20092;-65
2022/04/21 12:11:15;;;;;;;6.13;2.85;;;16.10;82.10;;;;;;5132443;27;20038;-65
2022/04/21 12:13:42;;;;;;;5.13;2.60;;;16.10;82.00;;;;;;5128139;27;20031;-65
2022/04/21 12:16:40;;;;;;;6.05;3.10;;;16.10;82.30;;;;;;5131609;27;20057;-65
2022/04/21 12:19:13;;;;;;;3.40;2.42;;;16.20;82.20;;;;;;5132202;27;20039;-65
2022/04/21 12:21:39;;;;;;;7.97;2.75;;;16.20;81.90;;;;;;5113136;27;20036;-65
2022/04/21 12:24:15;;;;;;;5.63;3.38;;;16.20;81.90;;;;;;5126905;27;20466;-65
2022/04/21 12:26:53;;;;;;;7.50;3.17;;;16.20;81.80;;;;;;5131621;27;20035;-65
2022/04/21 12:29:21;;;;;;;7.35;2.75;;;16.30;81.20;;;;;;5130940;27;20043;-65
2022/04/21 12:31:56;;;;;;;7.85;3.42;;;16.30;81.70;;;;;;5131106;27;20043;-65
2022/04/21 12:34:29;;;;;;;5.50;2.65;;;16.30;81.70;;;;;;5132272;27;20163;-65
2022/04/21 12:36:57;;;;;;;7.25;3.10;;;16.40;81.70;;;;;;5132690;27;20038;-65
2022/04/21 12:39:25;;;;;;;9.77;2.58;;;16.40;81.70;;;;;;5131804;27;20031;-65
2022/04/21 12:41:54;;;;;;;9.07;3.35;;;16.40;81.60;;;;;;5132342;27;20374;-65
2022/04/21 12:44:23;;;;;;;7.38;2.75;;;16.50;81.20;;;;;;5132792;27;20099;-65
2022/04/21 12:47:05;;;;;;;5.07;2.90;;;16.50;81.50;;;;;;5130513;27;20039;-65
2022/04/21 12:50:00;;;;;;;5.85;3.08;;;16.40;81.30;;;;;;5132188;27;20070;-65
2022/04/21 12:52:36;;;;;;;4.22;2.65;;;16.50;81.30;;;;;;5120975;27;20035;-65
2022/04/21 12:55:05;;;;;;;5.13;2.80;;;16.50;81.10;;;;;;5131088;27;20025;-63
2022/04/21 12:57:30;;;;;;;4.07;2.70;;;16.60;80.80;;;;;;5131109;27;20034;-67
2022/04/21 12:59:57;;;;;;;7.60;3.05;;;16.50;81.00;;;;;;5131817;27;20031;-67
2022/04/21 13:02:23;;;;;;;5.35;2.58;;;16.60;81.20;;;;;;5131532;27;20031;-66
2022/04/21 13:04:49;;;;;;;3.47;2.20;;;16.60;81.30;;;;;;5130156;27;20031;-68
2022/04/21 13:07:15;;;;;;;6.10;2.70;;;16.60;81.40;;;;;;5127515;27;20043;-67
2022/04/21 13:09:40;;;;;;;6.53;2.65;;;16.60;81.30;;;;;;5131211;27;20039;-66
2022/04/21 13:12:07;;;;;;;6.32;3.03;;;16.60;81.10;;;;;;5130853;27;20521;-65
2022/04/21 13:14:32;;;;;;;4.55;2.65;;;16.70;80.80;;;;;;5128720;27;20031;-65
2022/04/21 13:16:58;;;;;;;5.47;2.55;;;16.70;80.90;;;;;;5127691;27;20034;-65
2022/04/21 13:19:24;;;;;;;6.75;3.10;;;16.70;81.00;;;;;;5127688;27;20035;-65
2022/04/21 13:21:52;;;;;;;4.20;2.40;;;16.70;80.40;;;;;;5125700;27;20028;-65
2022/04/21 13:24:19;;;;;;;5.68;2.55;;;16.70;81.20;;;;;;5127484;28;20106;-65
2022/04/21 13:26:45;;;;;;;5.32;3.08;;;16.70;81.00;;;;;;5126204;28;20023;-64
2022/04/21 13:29:11;;;;;;;7.40;2.80;;;16.80;80.30;;;;;;5119749;28;20039;-67
2022/04/21 13:34:20;;;;;;;8.77;3.78;;;16.80;80.50;;;;;;5125377;28;20039;-66
2022/04/21 13:36:46;;;;;;;11.73;3.70;;;16.80;80.80;;;;;;5129077;28;20015;-66
2022/04/21 13:39:12;;;;;;;11.15;4.18;;;16.70;80.80;;;;;;5129201;28;20378;-66
2022/04/21 13:41:38;;;;;;;5.68;3.08;;;16.80;80.90;;;;;;5129072;28;20031;-66
2022/04/21 13:44:04;;;;;;;9.90;3.35;;;16.80;80.40;;;;;;5128424;28;20036;-65